createdAt,value
2022-10-25T00:00:02.325Z,12.18
2022-10-25T00:05:16.298Z,9.63
2022-10-25T00:10:22.253Z,9.40
2022-10-25T00:15:28.474Z,10.13
2022-10-25T00:20:31.054Z,10.02
2022-10-25T00:25:33.663Z,9.73
2022-10-25T00:30:36.219Z,9.95
2022-10-25T00:35:39.033Z,10.43
2022-10-25T00:40:41.592Z,9.37
2022-10-25T00:45:44.338Z,9.23
2022-10-25T00:50:51.508Z,10.10
2022-10-25T00:56:20.532Z,9.75
2022-10-25T01:01:25.028Z,9.68
2022-10-25T01:06:34.542Z,9.83
2022-10-25T01:11:38.079Z,9.48
2022-10-25T01:17:17.272Z,9.38
2022-10-25T01:22:34.751Z,9.32
2022-10-25T01:33:22.982Z,9.77
2022-10-25T01:38:37.462Z,8.93
2022-10-25T01:43:57.613Z,10.30
2022-10-25T01:49:05.571Z,10.13
2022-10-25T01:54:25.987Z,10.27
2022-10-25T02:00:07.491Z,9.10
2022-10-25T02:05:45.740Z,9.50
2022-10-25T02:11:16.741Z,9.35
2022-10-25T02:16:31.824Z,9.32
2022-10-25T02:21:36.833Z,9.60
2022-10-25T02:26:43.567Z,9.50
2022-10-25T02:31:46.667Z,9.48
2022-10-25T02:36:53.655Z,9.82
2022-10-25T02:41:56.403Z,9.68
2022-10-25T02:46:59.552Z,9.93
2022-10-25T02:52:02.372Z,9.40
2022-10-25T02:57:05.049Z,10.82
2022-10-25T03:02:07.632Z,8.60
2022-10-25T03:07:10.213Z,8.65
2022-10-25T03:12:12.764Z,8.77
2022-10-25T03:17:15.393Z,8.33
2022-10-25T03:22:18.036Z,9.43
2022-10-25T03:27:20.687Z,8.77
2022-10-25T03:32:23.302Z,8.88
2022-10-25T03:37:25.912Z,10.35
2022-10-25T03:42:28.493Z,8.80
2022-10-25T03:47:31.051Z,8.20
2022-10-25T03:52:33.931Z,8.18
2022-10-25T03:57:36.851Z,8.48
2022-10-25T04:02:39.706Z,8.15
2022-10-25T04:07:42.334Z,8.23
2022-10-25T04:12:44.999Z,8.77
2022-10-25T04:17:53.613Z,9.35
2022-10-25T04:22:57.261Z,8.60
2022-10-25T04:28:00.630Z,9.20
2022-10-25T04:33:03.251Z,9.37
2022-10-25T04:38:05.872Z,8.90
2022-10-25T04:43:08.514Z,8.55
2022-10-25T04:48:11.221Z,8.82
2022-10-25T04:53:14.307Z,8.77
2022-10-25T04:58:16.920Z,8.50
2022-10-25T05:03:20.377Z,8.82
2022-10-25T05:08:23.057Z,8.27
2022-10-25T05:13:25.636Z,7.97
2022-10-25T05:18:28.822Z,8.60
2022-10-25T05:23:33.813Z,8.27
2022-10-25T05:28:38.165Z,8.00
2022-10-25T05:33:40.886Z,8.05
2022-10-25T05:38:43.804Z,7.72
2022-10-25T05:43:46.828Z,7.63
2022-10-25T05:48:51.546Z,7.87
2022-10-25T05:53:56.449Z,7.32
2022-10-25T05:59:12.306Z,7.72
2022-10-25T06:04:15.717Z,7.00
2022-10-25T06:09:18.567Z,7.53
2022-10-25T06:14:21.418Z,7.03
2022-10-25T06:19:24.024Z,6.88
2022-10-25T06:24:26.814Z,6.30
2022-10-25T06:29:29.553Z,6.10
2022-10-25T06:34:32.162Z,5.85
2022-10-25T06:39:34.843Z,6.07
2022-10-25T06:44:37.543Z,5.47
2022-10-25T06:49:40.319Z,5.80
2022-10-25T06:54:43.302Z,5.00
2022-10-25T06:59:46.302Z,5.80
2022-10-25T07:04:49.084Z,5.23
2022-10-25T07:09:51.849Z,5.60
2022-10-25T07:14:54.817Z,5.93
2022-10-25T07:19:58.353Z,5.82
2022-10-25T07:25:01.063Z,5.65
2022-10-25T07:30:04.040Z,5.30
2022-10-25T07:35:07.001Z,6.38
2022-10-25T07:40:10.199Z,10.05
2022-10-25T07:45:12.966Z,7.82
2022-10-25T07:50:15.879Z,7.78
2022-10-25T07:55:18.856Z,6.90
2022-10-25T08:00:21.853Z,7.70
2022-10-25T08:05:24.833Z,7.68
2022-10-25T08:10:27.744Z,6.75
2022-10-25T08:15:30.566Z,5.90
2022-10-25T08:21:00.211Z,6.07
2022-10-25T08:25:57.614Z,6.35
2022-10-25T08:31:01.671Z,5.25
2022-10-25T08:36:05.142Z,4.85
2022-10-25T08:41:22.833Z,6.43
2022-10-25T08:46:41.337Z,5.63
2022-10-25T08:51:47.456Z,5.53
2022-10-25T08:57:03.730Z,4.68
2022-10-25T09:02:41.561Z,3.85
2022-10-25T09:08:22.366Z,4.25
2022-10-25T09:13:52.618Z,4.40
2022-10-25T09:18:57.701Z,4.65
2022-10-25T09:24:09.973Z,3.70
2022-10-25T09:29:30.797Z,3.60
2022-10-25T09:34:34.045Z,3.13
2022-10-25T09:39:45.079Z,2.57
2022-10-25T09:45:07.013Z,2.80
2022-10-25T09:50:27.553Z,2.63
2022-10-25T09:55:41.939Z,2.50
2022-10-25T10:00:44.901Z,2.63
2022-10-25T10:05:52.481Z,2.50
2022-10-25T10:10:56.925Z,2.97
2022-10-25T10:16:35.723Z,3.30
2022-10-25T10:21:46.589Z,3.60
2022-10-25T10:26:57.394Z,4.68
2022-10-25T10:32:03.176Z,4.50
2022-10-25T10:37:15.961Z,4.00
2022-10-25T10:42:22.939Z,3.60
2022-10-25T10:47:32.167Z,4.05
2022-10-25T10:52:43.917Z,3.83
2022-10-25T10:57:47.120Z,3.70
2022-10-25T11:02:50.934Z,4.28
2022-10-25T11:08:03.067Z,3.58
2022-10-25T11:13:15.014Z,4.00
2022-10-25T11:18:20.366Z,4.03
2022-10-25T11:23:36.748Z,4.00
2022-10-25T11:29:00.915Z,3.45
2022-10-25T11:34:32.835Z,3.72
2022-10-25T11:39:42.756Z,3.53
2022-10-25T11:45:19.084Z,4.05
2022-10-25T11:50:30.413Z,3.00
2022-10-25T11:55:37.213Z,3.15
2022-10-25T12:01:10.963Z,3.00
2022-10-25T12:06:26.942Z,3.80
2022-10-25T12:11:34.049Z,3.53
2022-10-25T12:16:37.967Z,3.90
2022-10-25T12:22:07.563Z,3.60
2022-10-25T12:27:11.881Z,3.28
2022-10-25T12:32:33.934Z,3.42
2022-10-25T12:37:38.610Z,3.33
2022-10-25T12:42:46.527Z,3.87
2022-10-25T12:48:24.589Z,3.60
2022-10-25T12:53:35.374Z,4.03
2022-10-25T12:58:53.159Z,3.63
2022-10-25T13:04:04.822Z,3.10
2022-10-25T13:09:21.029Z,3.03
2022-10-25T13:14:51.900Z,2.95
2022-10-25T13:20:19.690Z,2.58
2022-10-25T13:25:31.786Z,3.30
2022-10-25T13:30:34.560Z,3.25
2022-10-25T13:35:40.026Z,2.80
2022-10-25T13:40:42.917Z,2.90
2022-10-25T13:45:47.943Z,3.05
2022-10-25T13:51:00.342Z,3.05
2022-10-25T13:56:09.370Z,3.08
2022-10-25T14:01:18.291Z,3.27
2022-10-25T14:06:38.154Z,2.92
2022-10-25T14:12:01.478Z,3.10
2022-10-25T14:17:27.187Z,2.97
2022-10-25T14:22:57.379Z,3.33
2022-10-25T14:28:16.775Z,3.30
2022-10-25T14:33:35.429Z,3.10
2022-10-25T14:39:00.662Z,3.00
2022-10-25T14:44:03.499Z,3.45
2022-10-25T14:49:10.374Z,3.13
2022-10-25T14:54:12.962Z,3.40
2022-10-25T14:59:42.528Z,2.92
2022-10-25T15:04:48.854Z,3.35
2022-10-25T15:09:53.715Z,3.15
2022-10-25T15:14:58.974Z,3.47
2022-10-25T15:20:06.689Z,3.80
2022-10-25T15:25:24.732Z,2.45
2022-10-25T15:30:37.757Z,2.30
2022-10-25T15:35:48.686Z,2.75
2022-10-25T15:40:51.528Z,2.17
2022-10-25T15:45:55.155Z,2.20
2022-10-25T15:50:58.822Z,2.47
2022-10-25T15:56:02.818Z,2.67
2022-10-25T16:01:05.916Z,3.17
2022-10-25T16:06:12.381Z,2.92
2022-10-25T16:11:19.162Z,2.47
2022-10-25T16:16:45.091Z,2.60
2022-10-25T16:21:48.003Z,2.75
2022-10-25T16:26:51.502Z,2.75
2022-10-25T16:31:54.783Z,3.10
2022-10-25T16:36:58.083Z,3.63
2022-10-25T16:42:00.833Z,3.15
2022-10-25T16:47:03.552Z,3.67
2022-10-25T16:52:06.414Z,3.30
2022-10-25T16:57:09.603Z,3.00
2022-10-25T17:02:21.306Z,3.70
2022-10-25T17:07:24.673Z,2.88
2022-10-25T17:12:27.954Z,3.47
2022-10-25T17:17:30.665Z,3.20
2022-10-25T17:22:34.965Z,3.60
2022-10-25T17:27:40.106Z,3.70
2022-10-25T17:32:43.508Z,3.42
2022-10-25T17:37:47.475Z,4.30
2022-10-25T17:42:50.523Z,4.07
2022-10-25T17:47:53.296Z,4.10
2022-10-25T17:52:56.008Z,4.13
2022-10-25T17:57:58.788Z,4.22
2022-10-25T18:03:04.281Z,4.32
2022-10-25T18:08:08.011Z,4.45
2022-10-25T18:13:10.931Z,4.40
2022-10-25T18:18:13.729Z,4.13
2022-10-25T18:23:16.549Z,4.25
2022-10-25T18:28:19.260Z,3.90
2022-10-25T18:33:25.210Z,4.72
2022-10-25T18:38:28.209Z,4.63
2022-10-25T18:43:30.951Z,4.77
2022-10-25T18:48:33.691Z,4.35
2022-10-25T18:53:38.791Z,3.85
2022-10-25T18:58:42.421Z,4.07
2022-10-25T19:03:45.535Z,4.60
2022-10-25T19:08:49.756Z,4.43
2022-10-25T19:13:56.781Z,4.47
2022-10-25T19:19:07.418Z,5.22
2022-10-25T19:24:14.236Z,4.90
2022-10-25T19:29:17.137Z,4.63
2022-10-25T19:34:19.955Z,4.73
2022-10-25T19:39:22.782Z,4.32
2022-10-25T19:44:25.712Z,4.72
2022-10-25T19:49:28.545Z,4.50
2022-10-25T19:54:31.373Z,4.72
2022-10-25T19:59:34.742Z,4.50
2022-10-25T20:04:37.494Z,4.93
2022-10-25T20:09:41.486Z,4.50
2022-10-25T20:14:44.244Z,4.93
2022-10-25T20:19:47.360Z,4.95
2022-10-25T20:24:50.518Z,4.97
2022-10-25T20:29:53.358Z,5.18
2022-10-25T20:34:56.166Z,5.13
2022-10-25T20:39:58.952Z,4.60
2022-10-25T20:45:04.687Z,5.38
2022-10-25T20:50:07.748Z,5.13
2022-10-25T20:55:10.342Z,5.55
2022-10-25T21:00:17.058Z,5.40
2022-10-25T21:05:22.432Z,5.25
2022-10-25T21:10:25.108Z,5.18
2022-10-25T21:15:27.833Z,4.70
2022-10-25T21:20:31.033Z,4.82
2022-10-25T21:25:34.148Z,5.22
2022-10-25T21:30:36.810Z,4.57
2022-10-25T21:35:39.401Z,4.60
2022-10-25T21:40:42.089Z,4.83
2022-10-25T21:45:44.717Z,5.00
2022-10-25T21:50:58.751Z,5.15
2022-10-25T21:56:05.902Z,4.80
2022-10-25T22:01:11.342Z,4.70
2022-10-25T22:06:15.876Z,4.37
2022-10-25T22:11:24.781Z,4.43
2022-10-25T22:16:28.316Z,4.10
2022-10-25T22:21:33.603Z,4.60
2022-10-25T22:26:38.393Z,4.28
2022-10-25T22:31:41.533Z,4.27
2022-10-25T22:36:44.147Z,4.22
2022-10-25T22:41:52.991Z,3.67
2022-10-25T22:46:55.931Z,3.72
2022-10-25T22:51:58.641Z,3.78
2022-10-25T22:57:01.493Z,3.87
2022-10-25T23:02:04.235Z,3.88
2022-10-25T23:07:06.824Z,3.72
2022-10-25T23:12:09.456Z,4.20
2022-10-25T23:17:12.253Z,3.33
2022-10-25T23:22:14.911Z,4.10
2022-10-25T23:27:17.512Z,4.03
2022-10-25T23:32:20.205Z,3.83
2022-10-25T23:37:22.952Z,4.10
2022-10-25T23:42:25.654Z,4.05
2022-10-25T23:47:28.260Z,3.83
2022-10-25T23:52:30.851Z,4.50
2022-10-25T23:57:33.532Z,3.60
